sensor_id;sensor_type;location;lat;lon;timestamp;P1;durP1;ratioP1;P2;durP2;ratioP2
211;SDS011;16228;48.800;9.002;2023-05-07T00:01:44;3.60;;;3.27;;
211;SDS011;16228;48.800;9.002;2023-05-07T00:04:11;7.67;;;3.80;;
211;SDS011;16228;48.800;9.002;2023-05-07T00:06:40;3.53;;;3.20;;
211;SDS011;16228;48.800;9.002;2023-05-07T00:09:07;4.50;;;3.60;;
211;SDS011;16228;48.800;9.002;2023-05-07T00:11:34;4.87;;;4.00;;
211;SDS011;16228;48.800;9.002;2023-05-07T00:14:01;4.07;;;3.30;;
211;SDS011;16228;48.800;9.002;2023-05-07T00:16:29;5.60;;;3.97;;
211;SDS011;16228;48.800;9.002;2023-05-07T00:18:56;4.73;;;3.90;;
211;SDS011;16228;48.800;9.002;2023-05-07T00:21:23;4.83;;;4.27;;
211;SDS011;16228;48.800;9.002;2023-05-07T00:23:53;4.63;;;3.93;;
211;SDS011;16228;48.800;9.002;2023-05-07T00:26:20;3.83;;;3.53;;
211;SDS011;16228;48.800;9.002;2023-05-07T00:28:48;5.37;;;3.87;;
211;SDS011;16228;48.800;9.002;2023-05-07T00:31:15;5.03;;;3.83;;
211;SDS011;16228;48.800;9.002;2023-05-07T00:33:43;4.60;;;3.90;;
211;SDS011;16228;48.800;9.002;2023-05-07T00:36:10;4.97;;;4.43;;
211;SDS011;16228;48.800;9.002;2023-05-07T00:38:37;4.83;;;3.30;;
211;SDS011;16228;48.800;9.002;2023-05-07T00:41:06;6.67;;;4.17;;
211;SDS011;16228;48.800;9.002;2023-05-07T00:43:33;4.40;;;3.97;;
211;SDS011;16228;48.800;9.002;2023-05-07T00:46:00;5.50;;;3.63;;
211;SDS011;16228;48.800;9.002;2023-05-07T00:48:28;5.77;;;4.50;;
211;SDS011;16228;48.800;9.002;2023-05-07T00:50:56;4.23;;;3.93;;
211;SDS011;16228;48.800;9.002;2023-05-07T00:53:23;3.63;;;3.33;;
211;SDS011;16228;48.800;9.002;2023-05-07T00:55:51;4.50;;;4.10;;
211;SDS011;16228;48.800;9.002;2023-05-07T00:58:20;5.00;;;4.47;;
211;SDS011;16228;48.800;9.002;2023-05-07T01:00:48;4.03;;;3.67;;
211;SDS011;16228;48.800;9.002;2023-05-07T01:03:15;4.57;;;4.17;;
211;SDS011;16228;48.800;9.002;2023-05-07T01:05:42;4.37;;;3.77;;
211;SDS011;16228;48.800;9.002;2023-05-07T01:08:11;6.10;;;4.57;;
211;SDS011;16228;48.800;9.002;2023-05-07T01:10:43;4.83;;;4.43;;
211;SDS011;16228;48.800;9.002;2023-05-07T01:13:11;4.87;;;4.00;;
211;SDS011;16228;48.800;9.002;2023-05-07T01:15:41;4.50;;;3.80;;
211;SDS011;16228;48.800;9.002;2023-05-07T01:18:09;5.90;;;4.13;;
211;SDS011;16228;48.800;9.002;2023-05-07T01:20:37;3.60;;;3.30;;
211;SDS011;16228;48.800;9.002;2023-05-07T01:23:05;7.10;;;4.60;;
211;SDS011;16228;48.800;9.002;2023-05-07T01:25:34;4.03;;;3.63;;
211;SDS011;16228;48.800;9.002;2023-05-07T01:28:01;5.27;;;4.53;;
211;SDS011;16228;48.800;9.002;2023-05-07T01:30:28;4.83;;;3.67;;
211;SDS011;16228;48.800;9.002;2023-05-07T01:32:57;4.60;;;3.70;;
211;SDS011;16228;48.800;9.002;2023-05-07T01:35:29;3.77;;;3.47;;
211;SDS011;16228;48.800;9.002;2023-05-07T01:38:00;4.37;;;3.97;;
211;SDS011;16228;48.800;9.002;2023-05-07T01:40:30;4.70;;;4.30;;
211;SDS011;16228;48.800;9.002;2023-05-07T01:42:58;4.97;;;4.20;;
211;SDS011;16228;48.800;9.002;2023-05-07T01:45:25;4.63;;;4.23;;
211;SDS011;16228;48.800;9.002;2023-05-07T01:47:53;4.80;;;3.80;;
211;SDS011;16228;48.800;9.002;2023-05-07T01:50:22;4.47;;;3.67;;
211;SDS011;16228;48.800;9.002;2023-05-07T01:52:50;3.33;;;3.07;;
211;SDS011;16228;48.800;9.002;2023-05-07T01:55:17;3.90;;;3.60;;
211;SDS011;16228;48.800;9.002;2023-05-07T01:57:46;4.50;;;3.90;;
211;SDS011;16228;48.800;9.002;2023-05-07T02:00:13;3.40;;;3.10;;
211;SDS011;16228;48.800;9.002;2023-05-07T02:02:41;3.77;;;3.47;;
211;SDS011;16228;48.800;9.002;2023-05-07T02:05:08;3.47;;;3.17;;
211;SDS011;16228;48.800;9.002;2023-05-07T02:07:35;3.80;;;3.30;;
211;SDS011;16228;48.800;9.002;2023-05-07T02:10:02;5.03;;;3.43;;
211;SDS011;16228;48.800;9.002;2023-05-07T02:12:30;3.70;;;3.10;;
211;SDS011;16228;48.800;9.002;2023-05-07T02:14:59;4.93;;;3.67;;
211;SDS011;16228;48.800;9.002;2023-05-07T02:17:26;3.57;;;3.27;;
211;SDS011;16228;48.800;9.002;2023-05-07T02:19:56;4.30;;;3.90;;
211;SDS011;16228;48.800;9.002;2023-05-07T02:22:24;3.10;;;2.87;;
211;SDS011;16228;48.800;9.002;2023-05-07T02:24:51;4.13;;;2.50;;
211;SDS011;16228;48.800;9.002;2023-05-07T02:27:18;3.53;;;2.73;;
211;SDS011;16228;48.800;9.002;2023-05-07T02:29:45;6.03;;;3.80;;
211;SDS011;16228;48.800;9.002;2023-05-07T02:32:14;3.67;;;3.33;;
211;SDS011;16228;48.800;9.002;2023-05-07T02:34:41;4.00;;;3.37;;
211;SDS011;16228;48.800;9.002;2023-05-07T02:37:08;3.87;;;3.57;;
211;SDS011;16228;48.800;9.002;2023-05-07T02:39:35;4.60;;;4.20;;
211;SDS011;16228;48.800;9.002;2023-05-07T02:42:03;4.13;;;3.40;;
211;SDS011;16228;48.800;9.002;2023-05-07T02:44:30;5.40;;;4.90;;
211;SDS011;16228;48.800;9.002;2023-05-07T02:46:57;4.10;;;3.63;;
211;SDS011;16228;48.800;9.002;2023-05-07T02:49:25;4.73;;;3.73;;
211;SDS011;16228;48.800;9.002;2023-05-07T02:51:53;4.30;;;3.90;;
211;SDS011;16228;48.800;9.002;2023-05-07T02:54:20;3.93;;;3.50;;
211;SDS011;16228;48.800;9.002;2023-05-07T02:56:47;4.13;;;3.60;;
211;SDS011;16228;48.800;9.002;2023-05-07T02:59:14;4.00;;;3.60;;
211;SDS011;16228;48.800;9.002;2023-05-07T03:01:42;4.23;;;3.90;;
211;SDS011;16228;48.800;9.002;2023-05-07T03:04:10;4.13;;;3.70;;
211;SDS011;16228;48.800;9.002;2023-05-07T03:06:38;4.57;;;4.17;;
211;SDS011;16228;48.800;9.002;2023-05-07T03:09:06;4.83;;;4.43;;
211;SDS011;16228;48.800;9.002;2023-05-07T03:11:34;4.80;;;3.73;;
211;SDS011;16228;48.800;9.002;2023-05-07T03:14:01;6.67;;;3.90;;
211;SDS011;16228;48.800;9.002;2023-05-07T03:16:28;4.50;;;4.10;;
211;SDS011;16228;48.800;9.002;2023-05-07T03:18:55;5.83;;;5.00;;
211;SDS011;16228;48.800;9.002;2023-05-07T03:21:23;6.50;;;4.90;;
211;SDS011;16228;48.800;9.002;2023-05-07T03:23:53;6.20;;;5.70;;
211;SDS011;16228;48.800;9.002;2023-05-07T03:26:20;5.03;;;4.40;;
211;SDS011;16228;48.800;9.002;2023-05-07T03:28:47;5.40;;;4.90;;
211;SDS011;16228;48.800;9.002;2023-05-07T03:31:14;4.67;;;4.20;;
211;SDS011;16228;48.800;9.002;2023-05-07T03:33:49;5.87;;;5.13;;
211;SDS011;16228;48.800;9.002;2023-05-07T03:36:17;4.47;;;4.17;;
211;SDS011;16228;48.800;9.002;2023-05-07T03:38:44;4.77;;;4.47;;
211;SDS011;16228;48.800;9.002;2023-05-07T03:41:13;5.03;;;4.63;;
211;SDS011;16228;48.800;9.002;2023-05-07T03:43:40;4.93;;;4.53;;
211;SDS011;16228;48.800;9.002;2023-05-07T03:46:07;4.63;;;4.23;;
211;SDS011;16228;48.800;9.002;2023-05-07T03:48:35;6.60;;;5.73;;
211;SDS011;16228;48.800;9.002;2023-05-07T03:51:02;6.07;;;5.57;;
211;SDS011;16228;48.800;9.002;2023-05-07T03:53:29;5.10;;;4.70;;
211;SDS011;16228;48.800;9.002;2023-05-07T03:55:56;4.50;;;4.00;;
211;SDS011;16228;48.800;9.002;2023-05-07T03:58:25;4.63;;;3.60;;
211;SDS011;16228;48.800;9.002;2023-05-07T04:00:52;5.07;;;4.20;;
211;SDS011;16228;48.800;9.002;2023-05-07T04:03:19;4.17;;;3.77;;
211;SDS011;16228;48.800;9.002;2023-05-07T04:05:47;5.33;;;4.47;;
211;SDS011;16228;48.800;9.002;2023-05-07T04:08:14;5.40;;;5.00;;
211;SDS011;16228;48.800;9.002;2023-05-07T04:10:41;6.60;;;5.40;;
211;SDS011;16228;48.800;9.002;2023-05-07T04:13:08;4.30;;;4.00;;
211;SDS011;16228;48.800;9.002;2023-05-07T04:15:37;4.67;;;4.27;;
211;SDS011;16228;48.800;9.002;2023-05-07T04:18:04;4.80;;;4.37;;
211;SDS011;16228;48.800;9.002;2023-05-07T04:20:33;4.70;;;4.20;;
211;SDS011;16228;48.800;9.002;2023-05-07T04:23:01;5.53;;;4.87;;
211;SDS011;16228;48.800;9.002;2023-05-07T04:25:29;5.03;;;4.63;;
211;SDS011;16228;48.800;9.002;2023-05-07T04:27:56;4.93;;;4.33;;
211;SDS011;16228;48.800;9.002;2023-05-07T04:30:23;4.70;;;4.30;;
211;SDS011;16228;48.800;9.002;2023-05-07T04:32:52;6.03;;;5.43;;
211;SDS011;16228;48.800;9.002;2023-05-07T04:35:19;4.83;;;4.43;;
211;SDS011;16228;48.800;9.002;2023-05-07T04:37:46;5.23;;;4.67;;
211;SDS011;16228;48.800;9.002;2023-05-07T04:40:14;5.03;;;4.53;;
211;SDS011;16228;48.800;9.002;2023-05-07T04:42:41;5.37;;;4.83;;
211;SDS011;16228;48.800;9.002;2023-05-07T04:45:08;5.83;;;5.20;;
211;SDS011;16228;48.800;9.002;2023-05-07T04:47:37;6.33;;;4.67;;
211;SDS011;16228;48.800;9.002;2023-05-07T04:50:06;4.60;;;4.20;;
211;SDS011;16228;48.800;9.002;2023-05-07T04:52:34;5.20;;;4.80;;
211;SDS011;16228;48.800;9.002;2023-05-07T04:55:01;5.00;;;4.50;;
211;SDS011;16228;48.800;9.002;2023-05-07T04:57:29;5.27;;;4.87;;
211;SDS011;16228;48.800;9.002;2023-05-07T04:59:56;6.47;;;5.70;;
211;SDS011;16228;48.800;9.002;2023-05-07T05:02:24;6.17;;;5.57;;
211;SDS011;16228;48.800;9.002;2023-05-07T05:04:51;4.97;;;4.57;;
211;SDS011;16228;48.800;9.002;2023-05-07T05:07:19;4.30;;;4.00;;
211;SDS011;16228;48.800;9.002;2023-05-07T05:09:46;5.17;;;4.70;;
211;SDS011;16228;48.800;9.002;2023-05-07T05:12:13;4.40;;;4.10;;
211;SDS011;16228;48.800;9.002;2023-05-07T05:14:41;4.33;;;3.90;;
211;SDS011;16228;48.800;9.002;2023-05-07T05:17:08;4.77;;;4.37;;
211;SDS011;16228;48.800;9.002;2023-05-07T05:19:35;6.93;;;4.67;;
211;SDS011;16228;48.800;9.002;2023-05-07T05:22:02;5.43;;;4.47;;
211;SDS011;16228;48.800;9.002;2023-05-07T05:24:31;6.83;;;4.93;;
211;SDS011;16228;48.800;9.002;2023-05-07T05:26:58;5.27;;;3.33;;
211;SDS011;16228;48.800;9.002;2023-05-07T05:29:26;3.77;;;3.47;;
211;SDS011;16228;48.800;9.002;2023-05-07T05:31:53;3.53;;;3.23;;
211;SDS011;16228;48.800;9.002;2023-05-07T05:34:20;4.43;;;3.33;;
211;SDS011;16228;48.800;9.002;2023-05-07T05:36:47;4.20;;;3.80;;
211;SDS011;16228;48.800;9.002;2023-05-07T05:39:15;3.97;;;3.67;;
211;SDS011;16228;48.800;9.002;2023-05-07T05:41:43;4.37;;;3.70;;
211;SDS011;16228;48.800;9.002;2023-05-07T05:44:11;3.93;;;3.20;;
211;SDS011;16228;48.800;9.002;2023-05-07T05:46:38;2.80;;;2.60;;
211;SDS011;16228;48.800;9.002;2023-05-07T05:49:05;6.97;;;3.50;;
211;SDS011;16228;48.800;9.002;2023-05-07T05:51:33;3.43;;;3.20;;
211;SDS011;16228;48.800;9.002;2023-05-07T05:54:00;4.30;;;3.10;;
211;SDS011;16228;48.800;9.002;2023-05-07T05:56:28;3.13;;;2.80;;
211;SDS011;16228;48.800;9.002;2023-05-07T05:58:56;4.07;;;3.13;;
211;SDS011;16228;48.800;9.002;2023-05-07T06:01:23;3.30;;;3.00;;
211;SDS011;16228;48.800;9.002;2023-05-07T06:03:50;3.40;;;3.10;;
211;SDS011;16228;48.800;9.002;2023-05-07T06:06:18;3.17;;;2.83;;
211;SDS011;16228;48.800;9.002;2023-05-07T06:08:45;3.47;;;3.10;;
211;SDS011;16228;48.800;9.002;2023-05-07T06:11:12;4.10;;;3.40;;
211;SDS011;16228;48.800;9.002;2023-05-07T06:13:39;3.27;;;2.93;;
211;SDS011;16228;48.800;9.002;2023-05-07T06:16:08;3.60;;;3.30;;
211;SDS011;16228;48.800;9.002;2023-05-07T06:18:35;5.07;;;3.40;;
211;SDS011;16228;48.800;9.002;2023-05-07T06:21:02;3.70;;;3.37;;
211;SDS011;16228;48.800;9.002;2023-05-07T06:23:30;3.57;;;3.27;;
211;SDS011;16228;48.800;9.002;2023-05-07T06:25:57;4.17;;;3.77;;
211;SDS011;16228;48.800;9.002;2023-05-07T06:28:24;3.83;;;3.40;;
211;SDS011;16228;48.800;9.002;2023-05-07T06:30:52;3.70;;;3.07;;
211;SDS011;16228;48.800;9.002;2023-05-07T06:33:21;3.17;;;2.87;;
211;SDS011;16228;48.800;9.002;2023-05-07T06:35:48;3.60;;;3.30;;
211;SDS011;16228;48.800;9.002;2023-05-07T06:38:15;3.33;;;3.03;;
211;SDS011;16228;48.800;9.002;2023-05-07T06:40:42;3.20;;;2.60;;
211;SDS011;16228;48.800;9.002;2023-05-07T06:43:09;3.60;;;2.80;;
211;SDS011;16228;48.800;9.002;2023-05-07T06:45:36;4.60;;;3.20;;
211;SDS011;16228;48.800;9.002;2023-05-07T06:48:04;3.03;;;2.67;;
211;SDS011;16228;48.800;9.002;2023-05-07T06:50:32;3.00;;;2.70;;
211;SDS011;16228;48.800;9.002;2023-05-07T06:53:00;3.07;;;2.77;;
211;SDS011;16228;48.800;9.002;2023-05-07T06:55:27;3.00;;;2.30;;
211;SDS011;16228;48.800;9.002;2023-05-07T06:57:54;3.33;;;2.17;;
211;SDS011;16228;48.800;9.002;2023-05-07T07:00:23;3.70;;;2.00;;
211;SDS011;16228;48.800;9.002;2023-05-07T07:02:50;2.17;;;2.07;;
211;SDS011;16228;48.800;9.002;2023-05-07T07:05:17;3.07;;;2.23;;
211;SDS011;16228;48.800;9.002;2023-05-07T07:07:46;2.20;;;2.10;;
211;SDS011;16228;48.800;9.002;2023-05-07T07:10:17;2.10;;;1.90;;
211;SDS011;16228;48.800;9.002;2023-05-07T07:12:45;2.20;;;2.00;;
211;SDS011;16228;48.800;9.002;2023-05-07T07:15:12;2.03;;;1.80;;
211;SDS011;16228;48.800;9.002;2023-05-07T07:17:40;1.83;;;1.73;;
211;SDS011;16228;48.800;9.002;2023-05-07T07:20:07;2.55;;;1.83;;
211;SDS011;16228;48.800;9.002;2023-05-07T07:22:35;2.53;;;2.13;;
211;SDS011;16228;48.800;9.002;2023-05-07T07:25:04;2.35;;;1.98;;
211;SDS011;16228;48.800;9.002;2023-05-07T07:27:31;2.03;;;1.83;;
211;SDS011;16228;48.800;9.002;2023-05-07T07:29:59;2.67;;;1.70;;
211;SDS011;16228;48.800;9.002;2023-05-07T07:32:26;1.90;;;1.50;;
211;SDS011;16228;48.800;9.002;2023-05-07T07:34:53;1.67;;;1.58;;
211;SDS011;16228;48.800;9.002;2023-05-07T07:37:20;3.20;;;1.60;;
211;SDS011;16228;48.800;9.002;2023-05-07T07:39:47;1.40;;;1.30;;
211;SDS011;16228;48.800;9.002;2023-05-07T07:42:16;1.80;;;1.70;;
211;SDS011;16228;48.800;9.002;2023-05-07T07:44:43;2.17;;;1.93;;
211;SDS011;16228;48.800;9.002;2023-05-07T07:47:10;2.07;;;1.60;;
211;SDS011;16228;48.800;9.002;2023-05-07T07:49:37;3.33;;;1.97;;
211;SDS011;16228;48.800;9.002;2023-05-07T07:52:05;2.50;;;2.23;;
211;SDS011;16228;48.800;9.002;2023-05-07T07:54:32;2.33;;;2.00;;
211;SDS011;16228;48.800;9.002;2023-05-07T07:56:59;1.80;;;1.70;;
211;SDS011;16228;48.800;9.002;2023-05-07T07:59:28;3.27;;;2.77;;
211;SDS011;16228;48.800;9.002;2023-05-07T08:01:55;2.97;;;2.67;;
211;SDS011;16228;48.800;9.002;2023-05-07T08:04:22;3.20;;;2.73;;
211;SDS011;16228;48.800;9.002;2023-05-07T08:06:49;3.50;;;2.90;;
211;SDS011;16228;48.800;9.002;2023-05-07T08:09:17;3.40;;;3.00;;
211;SDS011;16228;48.800;9.002;2023-05-07T08:11:44;5.37;;;2.90;;
211;SDS011;16228;48.800;9.002;2023-05-07T08:14:11;2.83;;;2.50;;
211;SDS011;16228;48.800;9.002;2023-05-07T08:16:40;3.23;;;2.93;;
211;SDS011;16228;48.800;9.002;2023-05-07T08:19:07;2.50;;;2.30;;
211;SDS011;16228;48.800;9.002;2023-05-07T08:21:34;2.67;;;2.20;;
211;SDS011;16228;48.800;9.002;2023-05-07T08:24:01;2.60;;;2.40;;
211;SDS011;16228;48.800;9.002;2023-05-07T08:26:28;2.93;;;2.70;;
211;SDS011;16228;48.800;9.002;2023-05-07T08:28:55;2.53;;;2.33;;
211;SDS011;16228;48.800;9.002;2023-05-07T08:31:23;3.10;;;2.40;;
211;SDS011;16228;48.800;9.002;2023-05-07T08:33:51;2.40;;;2.20;;
211;SDS011;16228;48.800;9.002;2023-05-07T08:36:18;2.92;;;2.28;;
211;SDS011;16228;48.800;9.002;2023-05-07T08:38:45;3.08;;;2.58;;
211;SDS011;16228;48.800;9.002;2023-05-07T08:41:12;3.95;;;2.35;;
211;SDS011;16228;48.800;9.002;2023-05-07T08:43:40;3.42;;;2.08;;
211;SDS011;16228;48.800;9.002;2023-05-07T08:46:08;2.35;;;1.75;;
211;SDS011;16228;48.800;9.002;2023-05-07T08:48:36;2.75;;;1.85;;
211;SDS011;16228;48.800;9.002;2023-05-07T08:51:05;1.40;;;1.30;;
211;SDS011;16228;48.800;9.002;2023-05-07T08:53:32;1.70;;;1.40;;
211;SDS011;16228;48.800;9.002;2023-05-07T08:56:00;1.40;;;1.30;;
211;SDS011;16228;48.800;9.002;2023-05-07T08:58:27;1.65;;;1.38;;
211;SDS011;16228;48.800;9.002;2023-05-07T09:00:54;3.10;;;1.50;;
211;SDS011;16228;48.800;9.002;2023-05-07T09:03:22;1.90;;;1.40;;
211;SDS011;16228;48.800;9.002;2023-05-07T09:05:49;2.30;;;1.45;;
211;SDS011;16228;48.800;9.002;2023-05-07T09:08:17;1.52;;;1.42;;
211;SDS011;16228;48.800;9.002;2023-05-07T09:10:44;1.77;;;1.42;;
211;SDS011;16228;48.800;9.002;2023-05-07T09:13:14;2.17;;;1.55;;
211;SDS011;16228;48.800;9.002;2023-05-07T09:15:43;1.50;;;1.40;;
211;SDS011;16228;48.800;9.002;2023-05-07T09:18:10;2.08;;;1.35;;
211;SDS011;16228;48.800;9.002;2023-05-07T09:20:38;2.08;;;1.42;;
211;SDS011;16228;48.800;9.002;2023-05-07T09:23:06;3.10;;;1.42;;
211;SDS011;16228;48.800;9.002;2023-05-07T09:25:35;1.48;;;1.10;;
211;SDS011;16228;48.800;9.002;2023-05-07T09:28:03;2.00;;;1.52;;
211;SDS011;16228;48.800;9.002;2023-05-07T09:30:32;1.15;;;1.05;;
211;SDS011;16228;48.800;9.002;2023-05-07T09:33:01;2.22;;;1.45;;
211;SDS011;16228;48.800;9.002;2023-05-07T09:35:30;2.65;;;1.70;;
211;SDS011;16228;48.800;9.002;2023-05-07T09:37:57;2.35;;;1.40;;
211;SDS011;16228;48.800;9.002;2023-05-07T09:40:26;0.98;;;0.98;;
211;SDS011;16228;48.800;9.002;2023-05-07T09:42:55;1.15;;;1.00;;
211;SDS011;16228;48.800;9.002;2023-05-07T09:45:24;2.55;;;1.30;;
211;SDS011;16228;48.800;9.002;2023-05-07T09:47:53;1.20;;;1.10;;
211;SDS011;16228;48.800;9.002;2023-05-07T09:50:22;2.25;;;1.50;;
211;SDS011;16228;48.800;9.002;2023-05-07T09:52:54;1.85;;;1.33;;
211;SDS011;16228;48.800;9.002;2023-05-07T09:55:22;2.70;;;1.58;;
211;SDS011;16228;48.800;9.002;2023-05-07T09:57:50;1.98;;;1.30;;
211;SDS011;16228;48.800;9.002;2023-05-07T10:00:20;2.20;;;1.20;;
211;SDS011;16228;48.800;9.002;2023-05-07T10:02:48;2.10;;;1.35;;
211;SDS011;16228;48.800;9.002;2023-05-07T10:05:17;1.80;;;1.38;;
211;SDS011;16228;48.800;9.002;2023-05-07T10:07:45;2.45;;;1.25;;
211;SDS011;16228;48.800;9.002;2023-05-07T10:10:14;1.75;;;1.50;;
211;SDS011;16228;48.800;9.002;2023-05-07T10:12:41;1.48;;;1.13;;
211;SDS011;16228;48.800;9.002;2023-05-07T10:15:09;1.88;;;1.52;;
211;SDS011;16228;48.800;9.002;2023-05-07T10:17:38;1.60;;;1.50;;
211;SDS011;16228;48.800;9.002;2023-05-07T10:20:06;2.50;;;2.03;;
211;SDS011;16228;48.800;9.002;2023-05-07T10:22:37;2.40;;;2.20;;
211;SDS011;16228;48.800;9.002;2023-05-07T10:25:06;3.10;;;2.80;;
211;SDS011;16228;48.800;9.002;2023-05-07T10:27:40;1.83;;;1.57;;
211;SDS011;16228;48.800;9.002;2023-05-07T10:30:12;2.40;;;2.17;;
211;SDS011;16228;48.800;9.002;2023-05-07T10:32:51;3.53;;;2.20;;
211;SDS011;16228;48.800;9.002;2023-05-07T10:35:22;2.87;;;1.80;;
211;SDS011;16228;48.800;9.002;2023-05-07T10:37:51;2.47;;;2.10;;
211;SDS011;16228;48.800;9.002;2023-05-07T10:40:19;2.53;;;1.80;;
211;SDS011;16228;48.800;9.002;2023-05-07T10:42:54;3.10;;;2.30;;
211;SDS011;16228;48.800;9.002;2023-05-07T10:45:22;1.77;;;1.67;;
211;SDS011;16228;48.800;9.002;2023-05-07T10:50:43;2.60;;;1.90;;
211;SDS011;16228;48.800;9.002;2023-05-07T10:53:24;2.10;;;1.53;;
211;SDS011;16228;48.800;9.002;2023-05-07T10:58:54;3.30;;;3.00;;
211;SDS011;16228;48.800;9.002;2023-05-07T11:04:24;3.77;;;1.93;;
211;SDS011;16228;48.800;9.002;2023-05-07T11:09:55;3.07;;;1.87;;
211;SDS011;16228;48.800;9.002;2023-05-07T11:15:32;1.70;;;1.60;;
211;SDS011;16228;48.800;9.002;2023-05-07T11:18:01;2.80;;;1.63;;
211;SDS011;16228;48.800;9.002;2023-05-07T11:20:47;2.20;;;2.00;;
211;SDS011;16228;48.800;9.002;2023-05-07T11:26:21;3.10;;;2.20;;
211;SDS011;16228;48.800;9.002;2023-05-07T11:28:48;2.30;;;1.80;;
211;SDS011;16228;48.800;9.002;2023-05-07T11:31:17;3.57;;;3.03;;
211;SDS011;16228;48.800;9.002;2023-05-07T11:33:47;3.07;;;2.73;;
211;SDS011;16228;48.800;9.002;2023-05-07T11:36:16;2.97;;;2.77;;
211;SDS011;16228;48.800;9.002;2023-05-07T11:38:46;1.83;;;1.73;;
211;SDS011;16228;48.800;9.002;2023-05-07T11:41:13;2.47;;;2.27;;
211;SDS011;16228;48.800;9.002;2023-05-07T11:43:53;2.47;;;2.20;;
211;SDS011;16228;48.800;9.002;2023-05-07T11:46:24;1.80;;;1.70;;
211;SDS011;16228;48.800;9.002;2023-05-07T11:48:53;2.80;;;2.60;;
211;SDS011;16228;48.800;9.002;2023-05-07T11:51:22;2.53;;;2.33;;
211;SDS011;16228;48.800;9.002;2023-05-07T11:53:51;2.43;;;2.23;;
211;SDS011;16228;48.800;9.002;2023-05-07T11:56:19;2.00;;;1.90;;
211;SDS011;16228;48.800;9.002;2023-05-07T11:58:47;2.63;;;1.90;;
211;SDS011;16228;48.800;9.002;2023-05-07T12:01:15;3.63;;;2.23;;
211;SDS011;16228;48.800;9.002;2023-05-07T12:03:44;4.07;;;3.40;;
211;SDS011;16228;48.800;9.002;2023-05-07T12:06:12;4.87;;;2.70;;
211;SDS011;16228;48.800;9.002;2023-05-07T12:08:43;4.33;;;2.53;;
211;SDS011;16228;48.800;9.002;2023-05-07T12:11:13;4.93;;;2.93;;
211;SDS011;16228;48.800;9.002;2023-05-07T12:13:43;15.53;;;14.53;;
211;SDS011;16228;48.800;9.002;2023-05-07T12:16:10;8.40;;;3.63;;
211;SDS011;16228;48.800;9.002;2023-05-07T12:18:38;8.73;;;6.33;;
211;SDS011;16228;48.800;9.002;2023-05-07T12:21:05;8.87;;;5.30;;
211;SDS011;16228;48.800;9.002;2023-05-07T12:23:34;6.33;;;4.00;;
211;SDS011;16228;48.800;9.002;2023-05-07T12:26:03;9.50;;;4.03;;
211;SDS011;16228;48.800;9.002;2023-05-07T12:28:31;6.90;;;3.00;;
211;SDS011;16228;48.800;9.002;2023-05-07T12:31:03;8.73;;;3.30;;
211;SDS011;16228;48.800;9.002;2023-05-07T12:33:31;8.83;;;3.90;;
211;SDS011;16228;48.800;9.002;2023-05-07T12:36:02;11.03;;;4.17;;
211;SDS011;16228;48.800;9.002;2023-05-07T12:38:34;5.53;;;2.77;;
211;SDS011;16228;48.800;9.002;2023-05-07T12:41:04;6.87;;;3.27;;
211;SDS011;16228;48.800;9.002;2023-05-07T12:43:32;8.93;;;3.33;;
211;SDS011;16228;48.800;9.002;2023-05-07T12:46:00;6.33;;;3.87;;
211;SDS011;16228;48.800;9.002;2023-05-07T12:48:30;8.83;;;4.83;;
211;SDS011;16228;48.800;9.002;2023-05-07T12:50:58;8.27;;;3.70;;
211;SDS011;16228;48.800;9.002;2023-05-07T12:53:27;10.03;;;5.57;;
211;SDS011;16228;48.800;9.002;2023-05-07T12:55:55;5.03;;;3.60;;
211;SDS011;16228;48.800;9.002;2023-05-07T12:58:26;7.37;;;3.33;;
211;SDS011;16228;48.800;9.002;2023-05-07T13:00:54;8.10;;;3.17;;
211;SDS011;16228;48.800;9.002;2023-05-07T13:03:24;6.90;;;3.90;;
211;SDS011;16228;48.800;9.002;2023-05-07T13:05:54;10.90;;;4.40;;
211;SDS011;16228;48.800;9.002;2023-05-07T13:08:29;7.67;;;4.47;;
211;SDS011;16228;48.800;9.002;2023-05-07T13:10:57;9.30;;;3.93;;
211;SDS011;16228;48.800;9.002;2023-05-07T13:13:29;5.97;;;3.17;;
211;SDS011;16228;48.800;9.002;2023-05-07T13:15:56;4.60;;;3.23;;
211;SDS011;16228;48.800;9.002;2023-05-07T13:18:24;5.83;;;2.97;;
211;SDS011;16228;48.800;9.002;2023-05-07T13:20:52;4.70;;;2.90;;
211;SDS011;16228;48.800;9.002;2023-05-07T13:23:19;4.93;;;3.03;;
211;SDS011;16228;48.800;9.002;2023-05-07T13:25:47;3.97;;;2.67;;
211;SDS011;16228;48.800;9.002;2023-05-07T13:28:15;3.07;;;2.77;;
211;SDS011;16228;48.800;9.002;2023-05-07T13:30:44;4.87;;;2.27;;
211;SDS011;16228;48.800;9.002;2023-05-07T13:33:11;4.77;;;2.50;;
211;SDS011;16228;48.800;9.002;2023-05-07T13:35:39;4.30;;;2.57;;
211;SDS011;16228;48.800;9.002;2023-05-07T13:38:06;4.53;;;2.23;;
211;SDS011;16228;48.800;9.002;2023-05-07T13:40:33;2.60;;;2.40;;
211;SDS011;16228;48.800;9.002;2023-05-07T13:43:00;5.93;;;3.17;;
211;SDS011;16228;48.800;9.002;2023-05-07T13:45:28;5.33;;;2.57;;
211;SDS011;16228;48.800;9.002;2023-05-07T13:47:57;2.77;;;2.57;;
211;SDS011;16228;48.800;9.002;2023-05-07T13:50:24;4.10;;;2.60;;
211;SDS011;16228;48.800;9.002;2023-05-07T13:52:54;3.23;;;2.47;;
211;SDS011;16228;48.800;9.002;2023-05-07T13:55:21;2.80;;;2.37;;
211;SDS011;16228;48.800;9.002;2023-05-07T13:57:54;2.27;;;2.17;;
211;SDS011;16228;48.800;9.002;2023-05-07T14:00:22;4.23;;;2.10;;
211;SDS011;16228;48.800;9.002;2023-05-07T14:02:50;3.23;;;2.93;;
211;SDS011;16228;48.800;9.002;2023-05-07T14:05:18;3.00;;;2.80;;
211;SDS011;16228;48.800;9.002;2023-05-07T14:07:45;3.60;;;2.80;;
211;SDS011;16228;48.800;9.002;2023-05-07T14:10:14;2.87;;;2.67;;
211;SDS011;16228;48.800;9.002;2023-05-07T14:12:41;2.83;;;2.63;;
211;SDS011;16228;48.800;9.002;2023-05-07T14:15:08;4.20;;;2.93;;
211;SDS011;16228;48.800;9.002;2023-05-07T14:17:36;3.40;;;3.10;;
211;SDS011;16228;48.800;9.002;2023-05-07T14:20:04;3.20;;;2.90;;
211;SDS011;16228;48.800;9.002;2023-05-07T14:22:34;2.90;;;2.47;;
211;SDS011;16228;48.800;9.002;2023-05-07T14:25:01;4.80;;;3.10;;
211;SDS011;16228;48.800;9.002;2023-05-07T14:27:28;3.00;;;2.80;;
211;SDS011;16228;48.800;9.002;2023-05-07T14:29:55;4.03;;;3.53;;
211;SDS011;16228;48.800;9.002;2023-05-07T14:32:22;3.77;;;3.20;;
211;SDS011;16228;48.800;9.002;2023-05-07T14:34:50;6.27;;;3.70;;
211;SDS011;16228;48.800;9.002;2023-05-07T14:37:17;3.03;;;2.83;;
211;SDS011;16228;48.800;9.002;2023-05-07T14:39:46;3.93;;;3.33;;
211;SDS011;16228;48.800;9.002;2023-05-07T14:42:13;2.40;;;2.20;;
211;SDS011;16228;48.800;9.002;2023-05-07T14:44:40;2.67;;;2.40;;
211;SDS011;16228;48.800;9.002;2023-05-07T14:47:08;2.13;;;1.90;;
211;SDS011;16228;48.800;9.002;2023-05-07T14:49:35;2.27;;;2.07;;
211;SDS011;16228;48.800;9.002;2023-05-07T14:52:02;5.57;;;2.43;;
211;SDS011;16228;48.800;9.002;2023-05-07T14:54:33;3.20;;;2.47;;
211;SDS011;16228;48.800;9.002;2023-05-07T14:57:02;3.23;;;2.90;;
211;SDS011;16228;48.800;9.002;2023-05-07T14:59:30;5.07;;;2.93;;
211;SDS011;16228;48.800;9.002;2023-05-07T15:01:58;2.70;;;2.30;;
211;SDS011;16228;48.800;9.002;2023-05-07T15:04:25;2.40;;;2.20;;
211;SDS011;16228;48.800;9.002;2023-05-07T15:06:52;3.93;;;3.53;;
211;SDS011;16228;48.800;9.002;2023-05-07T15:09:21;6.30;;;5.37;;
211;SDS011;16228;48.800;9.002;2023-05-07T15:11:48;4.60;;;4.20;;
211;SDS011;16228;48.800;9.002;2023-05-07T15:14:17;5.00;;;3.60;;
211;SDS011;16228;48.800;9.002;2023-05-07T15:16:45;5.83;;;3.27;;
211;SDS011;16228;48.800;9.002;2023-05-07T15:19:12;2.83;;;2.57;;
211;SDS011;16228;48.800;9.002;2023-05-07T15:21:40;4.90;;;3.23;;
211;SDS011;16228;48.800;9.002;2023-05-07T15:24:07;3.23;;;3.00;;
211;SDS011;16228;48.800;9.002;2023-05-07T15:26:34;3.10;;;2.30;;
211;SDS011;16228;48.800;9.002;2023-05-07T15:29:02;3.20;;;3.00;;
211;SDS011;16228;48.800;9.002;2023-05-07T15:31:34;4.27;;;2.40;;
211;SDS011;16228;48.800;9.002;2023-05-07T15:34:02;2.40;;;2.20;;
211;SDS011;16228;48.800;9.002;2023-05-07T15:36:30;2.90;;;2.10;;
211;SDS011;16228;48.800;9.002;2023-05-07T15:38:57;4.07;;;2.63;;